sensor_id;sensor_type;location;lat;lon;timestamp;pressure;altitude;pressure_sealevel;temperature;humidity
53300;BME280;39187;48.476;8.310;2023-05-12T00:02:05;90946.06;;;8.17;100.00
53300;BME280;39187;48.476;8.310;2023-05-12T00:04:31;90948.72;;;8.17;100.00
53300;BME280;39187;48.476;8.310;2023-05-12T00:06:57;90941.16;;;8.16;100.00
53300;BME280;39187;48.476;8.310;2023-05-12T00:09:22;90937.38;;;8.17;100.00
53300;BME280;39187;48.476;8.310;2023-05-12T00:11:48;90942.28;;;8.18;100.00
53300;BME280;39187;48.476;8.310;2023-05-12T00:14:14;90944.94;;;8.18;100.00
53300;BME280;39187;48.476;8.310;2023-05-12T00:16:40;90943.13;;;7.88;100.00
53300;BME280;39187;48.476;8.310;2023-05-12T00:19:05;90941.34;;;8.05;100.00
53300;BME280;39187;48.476;8.310;2023-05-12T00:21:31;90936.34;;;8.11;100.00
53300;BME280;39187;48.476;8.310;2023-05-12T00:23:57;90941.25;;;8.12;100.00
53300;BME280;39187;48.476;8.310;2023-05-12T00:26:22;90942.72;;;8.13;100.00
53300;BME280;39187;48.476;8.310;2023-05-12T00:28:48;90940.78;;;8.17;100.00
53300;BME280;39187;48.476;8.310;2023-05-12T00:31:13;90937.72;;;8.19;100.00
53300;BME280;39187;48.476;8.310;2023-05-12T00:33:39;90939.63;;;8.18;100.00
53300;BME280;39187;48.476;8.310;2023-05-12T00:36:06;90936.16;;;8.21;100.00
53300;BME280;39187;48.476;8.310;2023-05-12T00:38:31;90944.56;;;8.16;100.00
53300;BME280;39187;48.476;8.310;2023-05-12T00:40:59;90935.50;;;8.14;100.00
53300;BME280;39187;48.476;8.310;2023-05-12T00:43:25;90935.47;;;8.17;100.00
53300;BME280;39187;48.476;8.310;2023-05-12T00:45:50;90936.22;;;8.18;100.00
53300;BME280;39187;48.476;8.310;2023-05-12T00:48:16;90935.47;;;8.17;100.00
53300;BME280;39187;48.476;8.310;2023-05-12T00:50:41;90933.56;;;8.18;100.00
53300;BME280;39187;48.476;8.310;2023-05-12T00:53:08;90926.03;;;8.16;100.00
53300;BME280;39187;48.476;8.310;2023-05-12T00:55:33;90931.31;;;8.16;100.00
53300;BME280;39187;48.476;8.310;2023-05-12T00:58:01;90931.31;;;8.16;100.00
53300;BME280;39187;48.476;8.310;2023-05-12T01:00:27;90922.69;;;8.12;100.00
53300;BME280;39187;48.476;8.310;2023-05-12T01:02:52;90924.91;;;8.14;100.00
53300;BME280;39187;48.476;8.310;2023-05-12T01:05:18;90923.75;;;8.15;100.00
53300;BME280;39187;48.476;8.310;2023-05-12T01:07:45;90924.97;;;8.10;100.00
53300;BME280;39187;48.476;8.310;2023-05-12T01:10:20;90924.50;;;8.15;100.00
53300;BME280;39187;48.476;8.310;2023-05-12T01:12:46;90918.13;;;8.13;100.00
53300;BME280;39187;48.476;8.310;2023-05-12T01:15:12;90921.47;;;8.17;100.00
53300;BME280;39187;48.476;8.310;2023-05-12T01:17:39;90924.50;;;8.15;100.00
53300;BME280;39187;48.476;8.310;2023-05-12T01:20:07;90921.94;;;8.12;100.00
53300;BME280;39187;48.476;8.310;2023-05-12T01:22:36;90924.88;;;8.17;100.00
53300;BME280;39187;48.476;8.310;2023-05-12T01:25:10;90922.56;;;8.19;100.00
53300;BME280;39187;48.476;8.310;2023-05-12T01:27:38;90917.66;;;8.18;100.00
53300;BME280;39187;48.476;8.310;2023-05-12T01:30:05;90914.31;;;8.14;100.00
53300;BME280;39187;48.476;8.310;2023-05-12T01:32:31;90926.41;;;8.15;100.00
53300;BME280;39187;48.476;8.310;2023-05-12T01:34:56;90920.44;;;8.11;100.00
53300;BME280;39187;48.476;8.310;2023-05-12T01:37:22;90916.22;;;8.13;100.00
53300;BME280;39187;48.476;8.310;2023-05-12T01:39:54;90917.31;;;8.16;100.00
53300;BME280;39187;48.476;8.310;2023-05-12T01:42:20;90913.91;;;8.15;100.00
53300;BME280;39187;48.476;8.310;2023-05-12T01:44:45;90913.13;;;8.18;100.00
53300;BME280;39187;48.476;8.310;2023-05-12T01:47:11;90916.53;;;8.19;100.00
53300;BME280;39187;48.476;8.310;2023-05-12T01:49:37;90912.00;;;8.16;100.00
53300;BME280;39187;48.476;8.310;2023-05-12T01:52:03;90918.47;;;8.15;100.00
53300;BME280;39187;48.476;8.310;2023-05-12T01:54:29;90909.00;;;8.14;100.00
53300;BME280;39187;48.476;8.310;2023-05-12T01:56:54;90913.56;;;8.13;100.00
53300;BME280;39187;48.476;8.310;2023-05-12T01:59:20;90917.03;;;8.10;100.00
53300;BME280;39187;48.476;8.310;2023-05-12T02:01:45;90912.84;;;8.13;100.00
53300;BME280;39187;48.476;8.310;2023-05-12T02:04:11;90917.53;;;8.01;100.00
53300;BME280;39187;48.476;8.310;2023-05-12T02:06:36;90913.06;;;7.98;100.00
53300;BME280;39187;48.476;8.310;2023-05-12T02:09:02;90916.34;;;8.06;100.00
53300;BME280;39187;48.476;8.310;2023-05-12T02:11:28;90915.53;;;8.09;100.00
53300;BME280;39187;48.476;8.310;2023-05-12T02:13:54;90911.34;;;8.12;100.00
53300;BME280;39187;48.476;8.310;2023-05-12T02:16:19;90910.22;;;8.09;100.00
53300;BME280;39187;48.476;8.310;2023-05-12T02:18:45;90911.34;;;8.12;100.00
53300;BME280;39187;48.476;8.310;2023-05-12T02:21:10;90915.88;;;8.11;100.00
53300;BME280;39187;48.476;8.310;2023-05-12T02:23:36;90908.34;;;8.10;100.00
53300;BME280;39187;48.476;8.310;2023-05-12T02:26:01;90915.13;;;8.11;100.00
53300;BME280;39187;48.476;8.310;2023-05-12T02:28:27;90911.50;;;8.01;100.00
53300;BME280;39187;48.476;8.310;2023-05-12T02:30:52;90908.09;;;8.00;100.00
53300;BME280;39187;48.476;8.310;2023-05-12T02:33:21;90904.94;;;8.09;100.00
53300;BME280;39187;48.476;8.310;2023-05-12T02:35:51;90902.75;;;8.04;100.00
53300;BME280;39187;48.476;8.310;2023-05-12T02:38:16;90903.09;;;8.06;100.00
53300;BME280;39187;48.476;8.310;2023-05-12T02:40:42;90914.84;;;8.05;100.00
53300;BME280;39187;48.476;8.310;2023-05-12T02:43:07;90908.44;;;8.02;100.00
53300;BME280;39187;48.476;8.310;2023-05-12T02:45:33;90909.94;;;8.03;100.00
53300;BME280;39187;48.476;8.310;2023-05-12T02:47:59;90907.66;;;8.05;100.00
53300;BME280;39187;48.476;8.310;2023-05-12T02:50:24;90912.88;;;8.09;100.00
53300;BME280;39187;48.476;8.310;2023-05-12T02:52:50;90910.63;;;8.07;100.00
53300;BME280;39187;48.476;8.310;2023-05-12T02:55:16;90913.25;;;8.11;100.00
53300;BME280;39187;48.476;8.310;2023-05-12T02:57:42;90907.53;;;8.13;100.00
53300;BME280;39187;48.476;8.310;2023-05-12T03:00:08;90909.13;;;8.06;100.00
53300;BME280;39187;48.476;8.310;2023-05-12T03:02:35;90903.16;;;8.02;100.00
53300;BME280;39187;48.476;8.310;2023-05-12T03:05:01;90900.72;;;8.12;100.00
53300;BME280;39187;48.476;8.310;2023-05-12T03:07:27;90899.97;;;8.11;100.00
53300;BME280;39187;48.476;8.310;2023-05-12T03:09:53;90903.72;;;8.14;100.00
53300;BME280;39187;48.476;8.310;2023-05-12T03:12:19;90900.72;;;8.12;100.00
53300;BME280;39187;48.476;8.310;2023-05-12T03:14:44;90903.44;;;8.08;100.00
53300;BME280;39187;48.476;8.310;2023-05-12T03:17:10;90901.13;;;8.10;100.00
53300;BME280;39187;48.476;8.310;2023-05-12T03:19:35;90897.44;;;8.04;100.00
53300;BME280;39187;48.476;8.310;2023-05-12T03:22:01;90901.94;;;8.07;100.00
53300;BME280;39187;48.476;8.310;2023-05-12T03:24:27;90904.19;;;8.09;100.00
53300;BME280;39187;48.476;8.310;2023-05-12T03:26:53;90902.75;;;8.04;100.00
53300;BME280;39187;48.476;8.310;2023-05-12T03:29:19;90900.44;;;8.06;100.00
53300;BME280;39187;48.476;8.310;2023-05-12T03:31:45;90898.53;;;8.06;100.00
53300;BME280;39187;48.476;8.310;2023-05-12T03:34:10;90901.94;;;8.07;100.00
53300;BME280;39187;48.476;8.310;2023-05-12T03:36:36;90898.94;;;8.05;100.00
53300;BME280;39187;48.476;8.310;2023-05-12T03:39:02;90905.00;;;8.05;100.00
53300;BME280;39187;48.476;8.310;2023-05-12T03:41:28;90897.38;;;8.07;100.00
53300;BME280;39187;48.476;8.310;2023-05-12T03:43:53;90902.22;;;8.13;100.00
53300;BME280;39187;48.476;8.310;2023-05-12T03:46:19;90897.66;;;8.13;100.00
53300;BME280;39187;48.476;8.310;2023-05-12T03:48:45;90902.16;;;8.16;100.00
53300;BME280;39187;48.476;8.310;2023-05-12T03:51:11;90892.72;;;8.15;100.00
53300;BME280;39187;48.476;8.310;2023-05-12T03:53:37;90894.59;;;8.15;100.00
53300;BME280;39187;48.476;8.310;2023-05-12T03:56:07;90891.91;;;8.18;100.00
53300;BME280;39187;48.476;8.310;2023-05-12T03:58:32;90894.84;;;8.24;100.00
53300;BME280;39187;48.476;8.310;2023-05-12T04:00:58;90889.59;;;8.20;100.00
53300;BME280;39187;48.476;8.310;2023-05-12T04:03:26;90888.91;;;8.16;100.00
53300;BME280;39187;48.476;8.310;2023-05-12T04:06:01;90886.59;;;8.18;100.00
53300;BME280;39187;48.476;8.310;2023-05-12T04:08:28;90888.09;;;8.19;100.00
53300;BME280;39187;48.476;8.310;2023-05-12T04:10:55;90888.84;;;8.20;100.00
53300;BME280;39187;48.476;8.310;2023-05-12T04:13:22;90891.84;;;8.22;100.00
53300;BME280;39187;48.476;8.310;2023-05-12T04:15:47;90890.69;;;8.23;100.00
53300;BME280;39187;48.476;8.310;2023-05-12T04:18:13;90896.34;;;8.25;100.00
53300;BME280;39187;48.476;8.310;2023-05-12T04:20:39;90900.88;;;8.24;100.00
53300;BME280;39187;48.476;8.310;2023-05-12T04:23:05;90899.00;;;8.25;100.00
53300;BME280;39187;48.476;8.310;2023-05-12T04:25:30;90894.09;;;8.23;100.00
53300;BME280;39187;48.476;8.310;2023-05-12T04:27:56;90889.13;;;8.25;100.00
53300;BME280;39187;48.476;8.310;2023-05-12T04:30:22;90889.84;;;8.26;100.00
53300;BME280;39187;48.476;8.310;2023-05-12T04:32:47;90906.88;;;8.28;100.00
53300;BME280;39187;48.476;8.310;2023-05-12T04:35:13;90900.41;;;8.29;100.00
53300;BME280;39187;48.476;8.310;2023-05-12T04:37:39;90895.88;;;8.30;100.00
53300;BME280;39187;48.476;8.310;2023-05-12T04:40:06;90909.50;;;8.32;100.00
53300;BME280;39187;48.476;8.310;2023-05-12T04:42:34;90908.31;;;8.33;100.00
53300;BME280;39187;48.476;8.310;2023-05-12T04:45:00;90904.91;;;8.32;100.00
53300;BME280;39187;48.476;8.310;2023-05-12T04:47:25;90916.72;;;8.31;100.00
53300;BME280;39187;48.476;8.310;2023-05-12T04:49:51;90912.47;;;8.34;100.00
53300;BME280;39187;48.476;8.310;2023-05-12T04:52:16;90919.28;;;8.35;100.00
53300;BME280;39187;48.476;8.310;2023-05-12T04:54:42;90913.56;;;8.36;100.00
53300;BME280;39187;48.476;8.310;2023-05-12T04:57:08;90916.97;;;8.37;100.00
53300;BME280;39187;48.476;8.310;2023-05-12T04:59:33;90918.88;;;8.36;100.00
53300;BME280;39187;48.476;8.310;2023-05-12T05:02:00;90918.53;;;8.34;100.00
53300;BME280;39187;48.476;8.310;2023-05-12T05:04:25;90926.47;;;8.34;100.00
53300;BME280;39187;48.476;8.310;2023-05-12T05:06:51;90925.34;;;8.35;100.00
53300;BME280;39187;48.476;8.310;2023-05-12T05:09:16;90932.13;;;8.36;100.00
53300;BME280;39187;48.476;8.310;2023-05-12T05:11:42;90932.88;;;8.37;100.00
53300;BME280;39187;48.476;8.310;2023-05-12T05:14:07;90934.78;;;8.36;100.00
53300;BME280;39187;48.476;8.310;2023-05-12T05:16:33;90937.84;;;8.35;100.00
53300;BME280;39187;48.476;8.310;2023-05-12T05:18:59;90933.28;;;8.35;100.00
53300;BME280;39187;48.476;8.310;2023-05-12T05:21:25;90930.72;;;8.32;100.00
53300;BME280;39187;48.476;8.310;2023-05-12T05:23:51;90931.69;;;8.18;100.00
53300;BME280;39187;48.476;8.310;2023-05-12T05:26:17;90932.81;;;8.17;100.00
53300;BME280;39187;48.476;8.310;2023-05-12T05:28:42;90931.03;;;8.11;100.00
53300;BME280;39187;48.476;8.310;2023-05-12T05:31:14;90938.47;;;8.19;100.00
53300;BME280;39187;48.476;8.310;2023-05-12T05:33:39;90933.03;;;8.26;100.00
53300;BME280;39187;48.476;8.310;2023-05-12T05:36:05;90938.66;;;8.32;100.00
53300;BME280;39187;48.476;8.310;2023-05-12T05:38:31;90943.53;;;8.33;100.00
53300;BME280;39187;48.476;8.310;2023-05-12T05:40:56;90942.00;;;8.36;100.00
53300;BME280;39187;48.476;8.310;2023-05-12T05:43:22;90943.81;;;8.39;100.00
53300;BME280;39187;48.476;8.310;2023-05-12T05:45:47;90937.44;;;8.36;100.00
53300;BME280;39187;48.476;8.310;2023-05-12T05:48:14;90943.78;;;8.42;100.00
53300;BME280;39187;48.476;8.310;2023-05-12T05:50:39;90946.34;;;8.46;100.00
53300;BME280;39187;48.476;8.310;2023-05-12T05:53:05;90943.31;;;8.48;100.00
53300;BME280;39187;48.476;8.310;2023-05-12T05:55:31;90942.47;;;8.31;100.00
53300;BME280;39187;48.476;8.310;2023-05-12T05:57:56;90939.34;;;8.13;100.00
53300;BME280;39187;48.476;8.310;2023-05-12T06:00:22;90942.03;;;8.32;100.00
53300;BME280;39187;48.476;8.310;2023-05-12T06:02:47;90946.78;;;8.44;100.00
53300;BME280;39187;48.476;8.310;2023-05-12T06:05:13;90946.25;;;8.30;100.00
53300;BME280;39187;48.476;8.310;2023-05-12T06:07:38;90945.75;;;8.38;100.00
53300;BME280;39187;48.476;8.310;2023-05-12T06:10:05;90950.84;;;8.26;100.00
53300;BME280;39187;48.476;8.310;2023-05-12T06:12:30;90946.56;;;8.35;100.00
53300;BME280;39187;48.476;8.310;2023-05-12T06:14:56;90953.28;;;8.40;100.00
53300;BME280;39187;48.476;8.310;2023-05-12T06:17:21;90955.88;;;8.43;100.00
53300;BME280;39187;48.476;8.310;2023-05-12T06:19:47;90957.84;;;8.39;100.00
53300;BME280;39187;48.476;8.310;2023-05-12T06:22:14;90955.25;;;8.36;100.00
53300;BME280;39187;48.476;8.310;2023-05-12T06:24:40;90957.44;;;8.18;100.00
53300;BME280;39187;48.476;8.310;2023-05-12T06:27:06;90953.19;;;8.20;100.00
53300;BME280;39187;48.476;8.310;2023-05-12T06:29:32;90961.22;;;8.40;100.00
53300;BME280;39187;48.476;8.310;2023-05-12T06:31:57;90961.06;;;8.51;100.00
53300;BME280;39187;48.476;8.310;2023-05-12T06:34:23;90957.63;;;8.27;100.00
53300;BME280;39187;48.476;8.310;2023-05-12T06:36:48;90958.81;;;8.49;100.00
53300;BME280;39187;48.476;8.310;2023-05-12T06:39:14;90961.47;;;8.49;100.00
53300;BME280;39187;48.476;8.310;2023-05-12T06:41:40;90962.97;;;8.50;100.00
53300;BME280;39187;48.476;8.310;2023-05-12T06:44:05;90966.56;;;8.60;100.00
53300;BME280;39187;48.476;8.310;2023-05-12T06:46:32;90966.91;;;8.42;100.00
53300;BME280;39187;48.476;8.310;2023-05-12T06:48:57;90969.97;;;7.90;100.00
53300;BME280;39187;48.476;8.310;2023-05-12T06:51:24;90965.66;;;8.23;100.00
53300;BME280;39187;48.476;8.310;2023-05-12T06:53:50;90959.84;;;8.09;100.00
53300;BME280;39187;48.476;8.310;2023-05-12T06:56:15;90969.19;;;8.40;100.00
53300;BME280;39187;48.476;8.310;2023-05-12T06:58:42;90971.13;;;8.59;100.00
53300;BME280;39187;48.476;8.310;2023-05-12T07:01:07;90971.56;;;8.34;100.00
53300;BME280;39187;48.476;8.310;2023-05-12T07:03:33;90964.81;;;8.30;100.00
53300;BME280;39187;48.476;8.310;2023-05-12T07:05:59;90974.69;;;8.26;100.00
53300;BME280;39187;48.476;8.310;2023-05-12T07:08:24;90968.56;;;8.32;100.00
53300;BME280;39187;48.476;8.310;2023-05-12T07:10:50;90969.19;;;7.67;100.00
53300;BME280;39187;48.476;8.310;2023-05-12T07:13:15;90970.91;;;8.27;100.00
53300;BME280;39187;48.476;8.310;2023-05-12T07:15:41;90980.72;;;8.53;100.00
53300;BME280;39187;48.476;8.310;2023-05-12T07:18:07;90977.03;;;8.47;100.00
53300;BME280;39187;48.476;8.310;2023-05-12T07:20:32;90970.66;;;8.44;100.00
53300;BME280;39187;48.476;8.310;2023-05-12T07:22:58;90977.53;;;8.62;100.00
53300;BME280;39187;48.476;8.310;2023-05-12T07:25:23;90975.34;;;7.87;100.00
53300;BME280;39187;48.476;8.310;2023-05-12T07:27:49;90978.09;;;8.03;100.00
53300;BME280;39187;48.476;8.310;2023-05-12T07:30:14;90985.94;;;8.10;100.00
53300;BME280;39187;48.476;8.310;2023-05-12T07:32:40;90977.41;;;8.22;100.00
53300;BME280;39187;48.476;8.310;2023-05-12T07:35:07;90982.25;;;8.04;100.00
53300;BME280;39187;48.476;8.310;2023-05-12T07:37:34;90980.28;;;7.85;100.00
53300;BME280;39187;48.476;8.310;2023-05-12T07:39:59;90976.69;;;7.72;100.00
53300;BME280;39187;48.476;8.310;2023-05-12T07:42:25;90970.63;;;7.98;100.00
53300;BME280;39187;48.476;8.310;2023-05-12T07:44:50;90975.94;;;7.71;100.00
53300;BME280;39187;48.476;8.310;2023-05-12T07:47:16;90976.28;;;8.23;100.00
53300;BME280;39187;48.476;8.310;2023-05-12T07:49:41;90972.59;;;8.17;100.00
53300;BME280;39187;48.476;8.310;2023-05-12T07:52:07;90978.06;;;8.53;100.00
53300;BME280;39187;48.476;8.310;2023-05-12T07:54:32;90978.47;;;8.52;100.00
53300;BME280;39187;48.476;8.310;2023-05-12T07:56:58;90978.72;;;8.37;100.00
53300;BME280;39187;48.476;8.310;2023-05-12T07:59:23;90973.22;;;8.48;100.00
53300;BME280;39187;48.476;8.310;2023-05-12T08:01:49;90974.78;;;8.89;100.00
53300;BME280;39187;48.476;8.310;2023-05-12T08:04:14;90975.19;;;8.87;100.00
53300;BME280;39187;48.476;8.310;2023-05-12T08:06:40;90972.72;;;8.96;100.00
53300;BME280;39187;48.476;8.310;2023-05-12T08:09:05;90973.28;;;8.88;100.00
53300;BME280;39187;48.476;8.310;2023-05-12T08:11:31;90970.91;;;9.13;100.00
53300;BME280;39187;48.476;8.310;2023-05-12T08:13:56;90978.09;;;9.12;100.00
53300;BME280;39187;48.476;8.310;2023-05-12T08:16:22;90977.59;;;9.37;100.00
53300;BME280;39187;48.476;8.310;2023-05-12T08:18:47;90983.59;;;9.41;100.00
53300;BME280;39187;48.476;8.310;2023-05-12T08:21:13;90983.19;;;9.23;100.00
53300;BME280;39187;48.476;8.310;2023-05-12T08:23:39;90981.75;;;9.58;100.00
53300;BME280;39187;48.476;8.310;2023-05-12T08:26:05;90983.41;;;9.68;100.00
53300;BME280;39187;48.476;8.310;2023-05-12T08:28:30;90981.09;;;9.70;100.00
53300;BME280;39187;48.476;8.310;2023-05-12T08:30:56;90972.13;;;9.80;100.00
53300;BME280;39187;48.476;8.310;2023-05-12T08:33:23;90976.06;;;9.92;100.00
53300;BME280;39187;48.476;8.310;2023-05-12T08:35:48;90982.09;;;9.60;100.00
53300;BME280;39187;48.476;8.310;2023-05-12T08:38:15;90978.50;;;9.31;100.00
53300;BME280;39187;48.476;8.310;2023-05-12T08:41:07;90989.56;;;9.65;100.00
53300;BME280;39187;48.476;8.310;2023-05-12T08:43:44;90992.66;;;9.44;100.00
53300;BME280;39187;48.476;8.310;2023-05-12T08:46:13;90993.28;;;9.68;100.00
53300;BME280;39187;48.476;8.310;2023-05-12T08:48:39;90991.50;;;9.81;100.00
53300;BME280;39187;48.476;8.310;2023-05-12T08:51:08;90991.25;;;9.39;100.00
53300;BME280;39187;48.476;8.310;2023-05-12T08:53:37;90998.41;;;8.83;100.00
53300;BME280;39187;48.476;8.310;2023-05-12T08:56:05;90993.00;;;8.87;100.00
53300;BME280;39187;48.476;8.310;2023-05-12T08:58:32;90997.28;;;8.80;100.00
53300;BME280;39187;48.476;8.310;2023-05-12T09:01:02;91002.25;;;8.78;100.00
53300;BME280;39187;48.476;8.310;2023-05-12T09:03:29;90994.03;;;9.32;100.00
53300;BME280;39187;48.476;8.310;2023-05-12T09:05:57;90988.47;;;9.27;100.00
53300;BME280;39187;48.476;8.310;2023-05-12T09:08:28;90990.75;;;9.24;100.00
53300;BME280;39187;48.476;8.310;2023-05-12T09:10:57;90996.53;;;9.59;100.00
53300;BME280;39187;48.476;8.310;2023-05-12T09:16:01;90994.03;;;9.68;100.00
53300;BME280;39187;48.476;8.310;2023-05-12T09:18:51;90992.47;;;9.71;100.00
53300;BME280;39187;48.476;8.310;2023-05-12T09:21:17;90994.97;;;9.78;100.00
53300;BME280;39187;48.476;8.310;2023-05-12T09:23:59;90996.84;;;9.97;100.00
53300;BME280;39187;48.476;8.310;2023-05-12T09:26:26;90991.59;;;9.93;100.00
53300;BME280;39187;48.476;8.310;2023-05-12T09:28:53;90996.19;;;10.09;100.00
53300;BME280;39187;48.476;8.310;2023-05-12T09:31:21;90996.09;;;10.13;100.00
53300;BME280;39187;48.476;8.310;2023-05-12T09:33:48;90995.59;;;9.85;100.00
53300;BME280;39187;48.476;8.310;2023-05-12T09:36:19;91002.00;;;9.68;100.00
53300;BME280;39187;48.476;8.310;2023-05-12T09:38:45;90996.03;;;9.64;100.00
53300;BME280;39187;48.476;8.310;2023-05-12T09:41:11;90996.66;;;9.88;100.00
53300;BME280;39187;48.476;8.310;2023-05-12T09:43:43;90999.25;;;9.55;100.00
53300;BME280;39187;48.476;8.310;2023-05-12T09:46:09;90996.41;;;9.82;100.00
53300;BME280;39187;48.476;8.310;2023-05-12T09:48:36;91000.94;;;9.65;100.00
53300;BME280;39187;48.476;8.310;2023-05-12T09:51:03;91005.19;;;9.43;100.00
53300;BME280;39187;48.476;8.310;2023-05-12T09:53:29;91002.34;;;9.34;100.00
53300;BME280;39187;48.476;8.310;2023-05-12T09:55:55;91008.28;;;9.78;100.00
53300;BME280;39187;48.476;8.310;2023-05-12T09:58:22;91001.66;;;10.02;100.00
53300;BME280;39187;48.476;8.310;2023-05-12T10:00:51;90998.41;;;9.94;100.00
53300;BME280;39187;48.476;8.310;2023-05-12T10:03:19;91001.91;;;10.07;100.00
53300;BME280;39187;48.476;8.310;2023-05-12T10:05:59;90999.38;;;10.36;100.00
53300;BME280;39187;48.476;8.310;2023-05-12T10:08:42;90998.88;;;10.41;100.00
53300;BME280;39187;48.476;8.310;2023-05-12T10:11:08;91009.31;;;10.65;100.00
53300;BME280;39187;48.476;8.310;2023-05-12T10:13:35;91001.09;;;10.11;100.00
53300;BME280;39187;48.476;8.310;2023-05-12T10:16:01;90999.34;;;10.69;100.00
53300;BME280;39187;48.476;8.310;2023-05-12T10:18:28;91005.44;;;10.98;100.00
53300;BME280;39187;48.476;8.310;2023-05-12T10:20:55;90996.69;;;11.26;99.27
53300;BME280;39187;48.476;8.310;2023-05-12T10:23:22;91003.81;;;10.88;99.67
53300;BME280;39187;48.476;8.310;2023-05-12T10:25:49;90999.75;;;11.12;100.00
53300;BME280;39187;48.476;8.310;2023-05-12T10:28:14;90998.56;;;10.84;100.00
53300;BME280;39187;48.476;8.310;2023-05-12T10:30:41;90996.22;;;11.44;100.00
53300;BME280;39187;48.476;8.310;2023-05-12T10:33:07;90996.03;;;11.22;99.98
53300;BME280;39187;48.476;8.310;2023-05-12T10:35:36;91004.16;;;11.03;100.00
53300;BME280;39187;48.476;8.310;2023-05-12T10:38:09;90999.09;;;10.31;100.00
53300;BME280;39187;48.476;8.310;2023-05-12T10:40:36;90994.81;;;10.82;100.00
53300;BME280;39187;48.476;8.310;2023-05-12T10:43:25;90996.03;;;11.22;96.61
53300;BME280;39187;48.476;8.310;2023-05-12T10:46:17;90989.88;;;11.25;94.78
53300;BME280;39187;48.476;8.310;2023-05-12T10:51:34;90984.03;;;11.31;91.98
53300;BME280;39187;48.476;8.310;2023-05-12T10:54:22;90997.13;;;11.25;94.22
53300;BME280;39187;48.476;8.310;2023-05-12T10:56:48;90981.88;;;10.68;98.55
53300;BME280;39187;48.476;8.310;2023-05-12T10:59:20;90997.56;;;10.78;99.91
53300;BME280;39187;48.476;8.310;2023-05-12T11:02:12;90998.25;;;11.11;98.77
53300;BME280;39187;48.476;8.310;2023-05-12T11:04:41;91001.69;;;10.96;97.62
53300;BME280;39187;48.476;8.310;2023-05-12T11:07:10;91006.59;;;10.52;97.09
53300;BME280;39187;48.476;8.310;2023-05-12T11:09:38;90993.81;;;10.76;98.86
53300;BME280;39187;48.476;8.310;2023-05-12T11:12:05;91000.63;;;11.22;97.27
53300;BME280;39187;48.476;8.310;2023-05-12T11:14:32;90999.59;;;11.32;99.24
53300;BME280;39187;48.476;8.310;2023-05-12T11:16:58;90996.97;;;11.45;98.28
53300;BME280;39187;48.476;8.310;2023-05-12T11:19:24;91000.34;;;11.33;97.93
53300;BME280;39187;48.476;8.310;2023-05-12T11:21:49;91008.56;;;11.38;97.98
53300;BME280;39187;48.476;8.310;2023-05-12T11:24:15;91003.34;;;11.47;98.47
53300;BME280;39187;48.476;8.310;2023-05-12T11:26:41;90998.19;;;10.54;100.00
53300;BME280;39187;48.476;8.310;2023-05-12T11:29:06;91006.00;;;10.61;100.00
53300;BME280;39187;48.476;8.310;2023-05-12T11:31:32;91008.28;;;10.91;100.00
53300;BME280;39187;48.476;8.310;2023-05-12T11:34:05;91010.00;;;10.98;100.00
53300;BME280;39187;48.476;8.310;2023-05-12T11:36:36;91010.63;;;11.18;100.00
53300;BME280;39187;48.476;8.310;2023-05-12T11:39:01;90999.38;;;10.20;100.00
53300;BME280;39187;48.476;8.310;2023-05-12T11:41:27;91010.91;;;10.62;100.00
53300;BME280;39187;48.476;8.310;2023-05-12T11:43:53;91013.91;;;10.64;98.52
53300;BME280;39187;48.476;8.310;2023-05-12T11:46:23;91002.34;;;10.55;100.00
53300;BME280;39187;48.476;8.310;2023-05-12T11:48:57;91001.97;;;10.85;100.00
53300;BME280;39187;48.476;8.310;2023-05-12T11:51:23;91000.50;;;10.68;100.00
53300;BME280;39187;48.476;8.310;2023-05-12T11:53:51;91002.38;;;11.00;100.00
53300;BME280;39187;48.476;8.310;2023-05-12T11:56:21;91012.63;;;10.85;100.00
53300;BME280;39187;48.476;8.310;2023-05-12T11:58:55;91009.00;;;10.47;100.00
53300;BME280;39187;48.476;8.310;2023-05-12T12:01:22;91016.66;;;10.61;100.00
53300;BME280;39187;48.476;8.310;2023-05-12T12:03:49;91012.25;;;10.38;100.00
53300;BME280;39187;48.476;8.310;2023-05-12T12:06:16;91011.63;;;10.14;100.00
53300;BME280;39187;48.476;8.310;2023-05-12T12:09:08;91020.06;;;10.29;100.00
53300;BME280;39187;48.476;8.310;2023-05-12T12:11:34;91022.06;;;11.02;100.00
53300;BME280;39187;48.476;8.310;2023-05-12T12:14:00;91014.00;;;11.06;100.00
53300;BME280;39187;48.476;8.310;2023-05-12T12:16:28;91018.28;;;10.71;100.00
53300;BME280;39187;48.476;8.310;2023-05-12T12:18:54;91022.03;;;11.18;100.00
53300;BME280;39187;48.476;8.310;2023-05-12T12:21:21;91014.31;;;10.63;100.00
53300;BME280;39187;48.476;8.310;2023-05-12T12:23:47;91019.38;;;10.73;100.00
53300;BME280;39187;48.476;8.310;2023-05-12T12:26:14;91014.50;;;10.23;100.00
53300;BME280;39187;48.476;8.310;2023-05-12T12:28:45;91026.09;;;10.78;100.00
53300;BME280;39187;48.476;8.310;2023-05-12T12:31:10;91023.78;;;10.64;100.00
53300;BME280;39187;48.476;8.310;2023-05-12T12:33:36;91026.63;;;11.18;100.00
53300;BME280;39187;48.476;8.310;2023-05-12T12:36:02;91024.88;;;10.66;100.00
53300;BME280;39187;48.476;8.310;2023-05-12T12:38:27;91021.66;;;11.04;100.00
53300;BME280;39187;48.476;8.310;2023-05-12T12:40:53;91021.94;;;10.93;100.00
53300;BME280;39187;48.476;8.310;2023-05-12T12:43:18;91026.34;;;10.83;100.00
53300;BME280;39187;48.476;8.310;2023-05-12T12:45:44;91026.88;;;10.62;100.00
53300;BME280;39187;48.476;8.310;2023-05-12T12:48:09;91029.91;;;10.93;100.00
53300;BME280;39187;48.476;8.310;2023-05-12T12:50:35;91021.66;;;11.04;100.00
53300;BME280;39187;48.476;8.310;2023-05-12T12:53:01;91024.28;;;10.75;100.00
53300;BME280;39187;48.476;8.310;2023-05-12T12:55:26;91033.94;;;10.69;98.57
53300;BME280;39187;48.476;8.310;2023-05-12T12:57:52;91029.72;;;10.39;100.00
53300;BME280;39187;48.476;8.310;2023-05-12T13:00:17;91031.41;;;10.13;100.00
53300;BME280;39187;48.476;8.310;2023-05-12T13:02:43;91018.63;;;10.24;100.00